SBMN/MAO METAR and TAF weather

Enter ICAO airport designator
Station Type Date Time Source
SBMN METAR 2019/02/17 16:00 UTC NOAA

SBMN 171600Z 03009KT 8000 BKN040 31/23 Q1013


Station Type Date Time Source
SBMN Decoded METAR 2019/02/17 16:00 UTC NOAA

Manaus Aeroporto , Brazil (SBMN) 03-09S 059-59W 84M
Feb 17, 2019 - 11:00 AM EST / 2019.02.17 1600 UTC
Wind: from the NNE (030 degrees) at 10 MPH (9 KT):0
Visibility: 4 mile(s):0
Sky conditions: mostly cloudy
Temperature: 87 F (31 C)
Heat index: 93.9 F (34.4 C):1
Dew Point: 73 F (23 C)
Relative Humidity: 62%
Pressure (altimeter): 29.91 in. Hg (1013 hPa)
ob: SBMN 171600Z 03009KT 8000 BKN040 31/23 Q1013
cycle: 16

Station Type Date Time Source
SBMN TAF 2019/02/17 12:30 UTC NOAA

TAF SBMN 171000Z 1712/1812 02005KT 9999 FEW010 TX30/1718Z TN24/1807Z
BECMG 1715/1717 02007KT SCT020 FEW025TCU
BECMG 1723/1801 06003KT CAVOK
RMK PCQ


Example: see airport list